createdAt,value
2022-10-20T00:01:20.520Z,12.82
2022-10-20T00:03:52.453Z,14.35
2022-10-20T00:06:22.426Z,14.57
2022-10-20T00:08:52.155Z,13.25
2022-10-20T00:11:22.477Z,14.85
2022-10-20T00:13:52.792Z,13.98
2022-10-20T00:16:22.564Z,13.65
2022-10-20T00:18:51.351Z,13.18
2022-10-20T00:21:21.469Z,13.55
2022-10-20T00:23:51.200Z,13.68
2022-10-20T00:26:21.910Z,13.93
2022-10-20T00:28:50.132Z,14.88
2022-10-20T00:31:19.979Z,14.65
2022-10-20T00:33:49.826Z,14.90
2022-10-20T00:36:19.805Z,16.17
2022-10-20T00:38:48.967Z,14.80
2022-10-20T00:41:21.229Z,16.10
2022-10-20T00:43:53.364Z,16.03
2022-10-20T00:46:24.337Z,15.30
2022-10-20T00:48:59.867Z,16.92
2022-10-20T00:51:30.223Z,15.77
2022-10-20T00:54:04.404Z,15.30
2022-10-20T00:56:34.642Z,16.40
2022-10-20T00:59:03.627Z,16.52
2022-10-20T01:01:32.336Z,16.23
2022-10-20T01:04:01.307Z,16.77
2022-10-20T01:06:29.586Z,16.90
2022-10-20T01:08:57.898Z,15.18
2022-10-20T01:11:34.342Z,16.23
2022-10-20T01:14:15.926Z,16.60
2022-10-20T01:16:53.013Z,15.85
2022-10-20T01:19:58.974Z,16.73
2022-10-20T01:22:43.420Z,16.95
2022-10-20T01:25:20.061Z,17.02
2022-10-20T01:27:53.857Z,16.95
2022-10-20T01:30:28.054Z,16.55
2022-10-20T01:33:14.525Z,16.27
2022-10-20T01:35:52.374Z,15.85
2022-10-20T01:38:29.676Z,17.90
2022-10-20T01:41:02.951Z,18.10
2022-10-20T01:43:36.960Z,18.45
2022-10-20T01:46:06.585Z,17.58
2022-10-20T01:48:38.001Z,17.88
2022-10-20T01:51:06.312Z,16.92
2022-10-20T01:53:34.384Z,16.35
2022-10-20T01:56:04.443Z,18.08
2022-10-20T01:59:06.779Z,16.35
2022-10-20T02:01:58.937Z,17.17
2022-10-20T02:04:35.435Z,18.42
2022-10-20T02:07:14.992Z,18.33
2022-10-20T02:09:47.296Z,17.13
2022-10-20T02:12:22.055Z,18.02
2022-10-20T02:14:52.190Z,16.55
2022-10-20T02:17:21.925Z,17.42
2022-10-20T02:19:54.135Z,16.85
2022-10-20T02:22:23.133Z,18.47
2022-10-20T02:24:52.014Z,17.48
2022-10-20T02:27:25.823Z,18.15
2022-10-20T02:30:00.423Z,18.08
2022-10-20T02:32:30.992Z,17.95
2022-10-20T02:35:03.488Z,18.20
2022-10-20T02:37:35.100Z,17.50
2022-10-20T02:40:07.036Z,19.85
2022-10-20T02:42:35.891Z,18.88
2022-10-20T02:45:06.046Z,17.25
2022-10-20T02:47:34.585Z,17.00
2022-10-20T02:50:05.203Z,18.70
2022-10-20T02:52:35.217Z,18.38
2022-10-20T02:55:07.528Z,17.85
2022-10-20T02:57:36.123Z,19.45
2022-10-20T03:00:07.320Z,17.10
2022-10-20T03:02:35.842Z,17.52
2022-10-20T03:05:04.626Z,19.08
2022-10-20T03:07:32.881Z,18.77
2022-10-20T03:10:02.599Z,16.70
2022-10-20T03:12:32.256Z,17.58
2022-10-20T03:15:00.701Z,18.45
2022-10-20T03:17:30.406Z,16.98
2022-10-20T03:19:58.496Z,16.38
2022-10-20T03:22:31.736Z,18.15
2022-10-20T03:24:59.808Z,18.90
2022-10-20T03:27:28.059Z,17.10
2022-10-20T03:29:55.895Z,17.30
2022-10-20T03:32:24.549Z,16.52
2022-10-20T03:34:54.101Z,18.42
2022-10-20T03:37:22.166Z,16.90
2022-10-20T03:39:50.038Z,16.02
2022-10-20T03:42:19.641Z,17.52
2022-10-20T03:44:47.860Z,15.55
2022-10-20T03:47:16.212Z,17.65
2022-10-20T03:49:45.042Z,17.00
2022-10-20T03:52:14.794Z,16.77
2022-10-20T03:54:42.697Z,17.27
2022-10-20T03:57:10.737Z,16.75
2022-10-20T03:59:38.985Z,17.85
2022-10-20T04:02:07.450Z,16.70
2022-10-20T04:04:35.532Z,17.27
2022-10-20T04:07:03.422Z,17.75
2022-10-20T04:09:32.674Z,17.05
2022-10-20T04:12:00.866Z,17.40
2022-10-20T04:14:28.876Z,17.50
2022-10-20T04:16:56.853Z,17.45
2022-10-20T04:19:25.037Z,16.67
2022-10-20T04:21:52.985Z,16.75
2022-10-20T04:24:21.096Z,16.17
2022-10-20T04:29:27.373Z,18.38
2022-10-20T04:31:55.514Z,17.10
2022-10-20T04:34:23.743Z,16.45
2022-10-20T04:36:52.168Z,17.13
2022-10-20T04:39:21.532Z,16.13
2022-10-20T04:41:51.311Z,16.75
2022-10-20T04:44:19.616Z,16.27
2022-10-20T04:46:48.114Z,16.52
2022-10-20T04:49:16.517Z,16.70
2022-10-20T04:51:44.539Z,16.00
2022-10-20T04:54:12.588Z,16.08
2022-10-20T04:56:40.785Z,14.43
2022-10-20T04:59:13.518Z,15.68
2022-10-20T05:04:12.048Z,14.30
2022-10-20T05:06:40.463Z,14.88
2022-10-20T05:09:08.630Z,15.52
2022-10-20T05:11:41.272Z,14.80
2022-10-20T05:14:10.583Z,15.27
2022-10-20T05:16:41.555Z,15.80
2022-10-20T05:19:10.542Z,14.98
2022-10-20T05:21:38.979Z,15.25
2022-10-20T05:24:07.569Z,15.27
2022-10-20T05:26:37.400Z,15.93
2022-10-20T05:29:08.048Z,15.65
2022-10-20T05:31:41.505Z,14.70
2022-10-20T05:34:10.782Z,14.07
2022-10-20T05:36:39.032Z,14.45
2022-10-20T05:39:07.604Z,15.10
2022-10-20T05:41:39.140Z,13.43
2022-10-20T05:44:10.919Z,14.05
2022-10-20T05:46:44.565Z,13.73
2022-10-20T05:49:15.855Z,13.98
2022-10-20T05:51:45.253Z,13.57
2022-10-20T05:54:14.154Z,14.20
2022-10-20T05:56:43.603Z,14.07
2022-10-20T05:59:12.530Z,14.00
2022-10-20T06:01:48.251Z,14.40
2022-10-20T06:04:18.983Z,13.85
2022-10-20T06:06:48.780Z,14.63
2022-10-20T06:09:17.817Z,15.48
2022-10-20T06:11:47.593Z,16.33
2022-10-20T06:14:15.877Z,15.88
2022-10-20T06:16:49.473Z,17.23
2022-10-20T06:19:21.410Z,15.27
2022-10-20T06:21:52.169Z,16.20
2022-10-20T06:24:22.620Z,16.10
2022-10-20T06:26:51.878Z,15.68
2022-10-20T06:29:20.388Z,14.43
2022-10-20T06:31:51.499Z,14.20
2022-10-20T06:34:21.669Z,15.52
2022-10-20T06:36:51.998Z,14.75
2022-10-20T06:39:26.003Z,13.25
2022-10-20T06:41:57.349Z,14.40
2022-10-20T06:44:25.504Z,14.02
2022-10-20T06:46:55.131Z,13.75
2022-10-20T06:49:23.933Z,13.82
2022-10-20T06:51:52.242Z,14.18
2022-10-20T06:54:20.548Z,13.15
2022-10-20T06:56:48.555Z,15.07
2022-10-20T06:59:16.877Z,15.02
2022-10-20T07:01:45.596Z,15.82
2022-10-20T07:04:17.139Z,14.43
2022-10-20T07:06:47.316Z,14.32
2022-10-20T07:09:18.665Z,12.80
2022-10-20T07:11:47.309Z,13.27
2022-10-20T07:14:15.912Z,14.32
2022-10-20T07:16:44.040Z,12.88
2022-10-20T07:19:12.027Z,13.50
2022-10-20T07:21:45.360Z,12.75
2022-10-20T07:24:17.758Z,13.07
2022-10-20T07:26:45.968Z,12.65
2022-10-20T07:29:14.945Z,12.93
2022-10-20T07:31:44.778Z,11.80
2022-10-20T07:34:30.178Z,12.55
2022-10-20T07:36:59.797Z,12.50
2022-10-20T07:39:27.926Z,11.93
2022-10-20T07:41:55.911Z,12.77
2022-10-20T07:44:24.087Z,13.52
2022-10-20T07:46:52.397Z,12.88
2022-10-20T07:52:09.957Z,13.07
2022-10-20T07:54:37.997Z,13.13
2022-10-20T07:57:06.207Z,12.30
2022-10-20T07:59:34.786Z,12.35
2022-10-20T08:02:04.251Z,12.07
2022-10-20T08:04:32.455Z,12.48
2022-10-20T08:07:01.169Z,12.05
2022-10-20T08:09:30.685Z,11.57
2022-10-20T08:11:58.909Z,11.80
2022-10-20T08:14:31.975Z,11.82
2022-10-20T08:22:16.364Z,11.52
2022-10-20T08:24:45.964Z,11.20
2022-10-20T08:27:14.265Z,11.52
2022-10-20T08:29:47.728Z,11.75
2022-10-20T08:32:23.454Z,11.73
2022-10-20T08:34:53.724Z,11.88
2022-10-20T08:37:21.813Z,12.15
2022-10-20T08:39:51.454Z,10.85
2022-10-20T08:42:19.700Z,11.32
2022-10-20T08:44:49.272Z,10.70
2022-10-20T08:47:30.891Z,12.48
2022-10-20T08:50:02.322Z,10.20
2022-10-20T08:52:30.586Z,11.30
2022-10-20T08:55:00.775Z,11.10
2022-10-20T08:57:34.525Z,11.88
2022-10-20T09:00:16.676Z,10.82
2022-10-20T09:02:44.919Z,11.40
2022-10-20T09:05:18.198Z,11.15
2022-10-20T09:07:50.107Z,11.60
2022-10-20T09:10:29.101Z,11.93
2022-10-20T09:12:58.507Z,12.00
2022-10-20T09:15:27.705Z,11.00
2022-10-20T09:17:57.958Z,9.63
2022-10-20T09:20:29.520Z,10.63
2022-10-20T09:23:01.589Z,10.05
2022-10-20T09:25:37.792Z,9.68
2022-10-20T09:28:09.020Z,9.82
2022-10-20T09:30:37.199Z,10.77
2022-10-20T09:33:28.630Z,10.45
2022-10-20T09:36:08.310Z,9.65
2022-10-20T09:38:36.958Z,9.77
2022-10-20T09:41:12.473Z,9.82
2022-10-20T09:43:48.195Z,9.05
2022-10-20T09:46:22.429Z,10.20
2022-10-20T09:48:52.477Z,9.43
2022-10-20T09:51:24.356Z,9.13
2022-10-20T09:53:56.416Z,9.00
2022-10-20T09:56:28.260Z,9.80
2022-10-20T09:58:57.888Z,10.20
2022-10-20T10:01:26.383Z,9.18
2022-10-20T10:04:02.159Z,8.93
2022-10-20T10:06:40.615Z,8.82
2022-10-20T10:09:26.641Z,8.60
2022-10-20T10:12:01.081Z,9.45
2022-10-20T10:14:30.229Z,8.82
2022-10-20T10:16:58.268Z,8.98
2022-10-20T10:19:29.032Z,8.82
2022-10-20T10:21:58.982Z,9.02
2022-10-20T10:24:46.544Z,8.88
2022-10-20T10:27:25.681Z,9.13
2022-10-20T10:29:54.368Z,8.50
2022-10-20T10:32:26.772Z,8.85
2022-10-20T10:35:08.782Z,8.55
2022-10-20T10:37:39.866Z,7.63
2022-10-20T10:40:16.765Z,7.97
2022-10-20T10:43:01.722Z,7.63
2022-10-20T10:45:45.956Z,8.13
2022-10-20T10:48:49.152Z,8.02
2022-10-20T10:51:29.383Z,8.25
2022-10-20T10:54:11.954Z,8.05
2022-10-20T10:56:46.288Z,7.88
2022-10-20T10:59:21.875Z,8.27
2022-10-20T11:02:14.350Z,8.70
2022-10-20T11:07:51.124Z,7.43
2022-10-20T11:10:25.363Z,8.65
2022-10-20T11:13:06.382Z,8.45
2022-10-20T11:15:48.828Z,7.30
2022-10-20T11:18:32.015Z,8.17
2022-10-20T11:24:01.098Z,7.60
2022-10-20T11:26:34.901Z,7.18
2022-10-20T11:29:06.335Z,7.57
2022-10-20T11:31:41.715Z,7.00
2022-10-20T11:34:15.649Z,6.25
2022-10-20T11:36:47.854Z,6.75
2022-10-20T11:39:22.639Z,7.63
2022-10-20T11:41:54.014Z,8.07
2022-10-20T11:44:27.043Z,8.02
2022-10-20T11:49:33.798Z,7.22
2022-10-20T11:52:49.693Z,6.55
2022-10-20T11:55:32.692Z,6.80
2022-10-20T11:58:16.688Z,5.75
2022-10-20T12:01:01.437Z,6.22
2022-10-20T12:04:17.284Z,6.88
2022-10-20T12:07:08.427Z,7.05
2022-10-20T12:09:53.264Z,6.57
2022-10-20T12:12:27.187Z,6.82
2022-10-20T12:15:00.166Z,6.85
2022-10-20T12:17:32.455Z,6.93
2022-10-20T12:20:39.220Z,8.10
2022-10-20T12:23:49.070Z,6.70
2022-10-20T12:26:42.516Z,7.10
2022-10-20T12:29:48.709Z,6.65
2022-10-20T12:33:16.818Z,6.80
2022-10-20T12:36:01.110Z,6.22
2022-10-20T12:38:32.143Z,6.50
2022-10-20T12:41:06.452Z,6.47
2022-10-20T12:43:48.984Z,6.25
2022-10-20T12:46:24.044Z,6.75
2022-10-20T12:48:57.856Z,7.03
2022-10-20T12:51:37.688Z,6.35
2022-10-20T12:54:17.617Z,5.78
2022-10-20T12:56:46.487Z,6.15
2022-10-20T12:59:40.216Z,6.03
2022-10-20T13:02:42.570Z,5.97
2022-10-20T13:05:43.082Z,6.15
2022-10-20T13:08:28.241Z,6.18
2022-10-20T13:10:59.180Z,6.97
2022-10-20T13:14:06.932Z,6.70
2022-10-20T13:16:36.415Z,7.20
2022-10-20T13:19:08.706Z,6.80
2022-10-20T13:21:37.542Z,6.75
2022-10-20T13:24:16.875Z,6.50
2022-10-20T13:26:57.505Z,6.63
2022-10-20T13:29:37.920Z,7.32
2022-10-20T13:32:19.098Z,8.43
2022-10-20T13:34:52.947Z,8.57
2022-10-20T13:37:36.198Z,9.00
2022-10-20T13:40:13.536Z,7.93
2022-10-20T13:42:58.221Z,7.85
2022-10-20T13:45:39.453Z,8.70
2022-10-20T13:48:24.395Z,8.13
2022-10-20T13:50:59.816Z,8.30
2022-10-20T13:53:32.076Z,8.80
2022-10-20T13:56:05.410Z,8.27
2022-10-20T13:58:35.934Z,8.65
2022-10-20T14:01:06.909Z,9.32
2022-10-20T14:03:43.770Z,8.80
2022-10-20T14:06:34.176Z,8.88
2022-10-20T14:09:13.070Z,8.27
2022-10-20T14:11:42.025Z,8.95
2022-10-20T14:14:15.615Z,8.82
2022-10-20T14:16:51.671Z,8.57
2022-10-20T14:19:23.459Z,8.60
2022-10-20T14:21:54.401Z,9.18
2022-10-20T14:24:29.769Z,8.57
2022-10-20T14:27:02.559Z,9.25
2022-10-20T14:29:35.121Z,9.45
2022-10-20T14:32:06.727Z,9.25
2022-10-20T14:34:36.681Z,10.20
2022-10-20T14:37:08.078Z,9.38
2022-10-20T14:39:39.473Z,9.32
2022-10-20T14:42:20.785Z,9.13
2022-10-20T14:44:50.989Z,9.93
2022-10-20T14:47:21.247Z,9.25
2022-10-20T14:49:52.506Z,9.82
2022-10-20T14:52:23.228Z,9.77
2022-10-20T14:54:51.951Z,9.82
2022-10-20T14:57:42.352Z,8.75
2022-10-20T15:00:29.598Z,8.68
2022-10-20T15:02:58.885Z,9.80
2022-10-20T15:05:36.422Z,10.27
2022-10-20T15:08:26.823Z,10.68
2022-10-20T15:10:57.300Z,11.07
2022-10-20T15:13:29.060Z,10.45
2022-10-20T15:16:01.675Z,9.82
2022-10-20T15:18:37.938Z,10.85
2022-10-20T15:21:09.417Z,9.40
2022-10-20T15:23:38.057Z,10.00
2022-10-20T15:26:07.689Z,10.10
2022-10-20T15:28:38.781Z,9.38
2022-10-20T15:31:16.321Z,9.13
2022-10-20T15:33:44.707Z,9.10
2022-10-20T15:36:15.888Z,8.45
2022-10-20T15:38:44.145Z,8.57
2022-10-20T15:41:15.173Z,9.07
2022-10-20T15:43:43.125Z,8.73
2022-10-20T15:46:14.371Z,9.00
2022-10-20T15:48:43.061Z,8.75
2022-10-20T15:51:17.682Z,8.82
2022-10-20T15:53:51.130Z,8.48
2022-10-20T15:56:20.781Z,8.73
2022-10-20T15:58:51.092Z,9.85
2022-10-20T16:01:22.736Z,10.52
2022-10-20T16:03:51.075Z,10.43
2022-10-20T16:06:20.254Z,10.40
2022-10-20T16:08:51.788Z,10.38
2022-10-20T16:11:22.028Z,12.15
2022-10-20T16:13:50.586Z,11.90
2022-10-20T16:16:21.260Z,11.90
2022-10-20T16:18:49.576Z,11.75
2022-10-20T16:21:17.521Z,10.73
2022-10-20T16:23:45.686Z,12.15
2022-10-20T16:26:16.447Z,11.02
2022-10-20T16:28:44.588Z,11.02
2022-10-20T16:31:15.128Z,10.82
2022-10-20T16:33:45.190Z,11.43
2022-10-20T16:36:16.431Z,11.52
2022-10-20T16:38:46.229Z,10.70
2022-10-20T16:41:15.801Z,11.32
2022-10-20T16:43:46.641Z,11.95
2022-10-20T16:46:16.299Z,11.50
2022-10-20T16:48:48.936Z,11.43
2022-10-20T16:51:17.723Z,10.88
2022-10-20T16:53:46.008Z,11.57
2022-10-20T16:56:18.391Z,10.73
2022-10-20T16:58:49.306Z,10.85
2022-10-20T17:01:20.793Z,12.40
2022-10-20T17:03:52.228Z,10.98
2022-10-20T17:06:22.933Z,10.68
2022-10-20T17:08:51.618Z,11.27
2022-10-20T17:11:25.299Z,11.50
2022-10-20T17:13:55.171Z,12.00
2022-10-20T17:16:28.428Z,12.35
2022-10-20T17:18:59.833Z,10.90
2022-10-20T17:21:28.772Z,11.15
2022-10-20T17:23:59.052Z,11.32
2022-10-20T17:26:37.385Z,12.77
2022-10-20T17:29:05.267Z,12.07
2022-10-20T17:31:33.654Z,12.70
2022-10-20T17:34:03.534Z,14.82
2022-10-20T17:36:35.996Z,15.48
2022-10-20T17:39:10.077Z,16.63
2022-10-20T17:41:38.331Z,14.82
2022-10-20T17:44:10.433Z,14.38
2022-10-20T17:46:39.009Z,14.15
2022-10-20T17:49:08.329Z,13.35
2022-10-20T17:51:37.352Z,15.18
2022-10-20T17:54:06.011Z,13.30
2022-10-20T17:56:36.579Z,13.43
2022-10-20T17:59:06.827Z,14.23
2022-10-20T18:01:37.189Z,13.38
2022-10-20T18:04:09.761Z,13.80
2022-10-20T18:06:44.026Z,15.07
2022-10-20T18:09:14.290Z,14.98
2022-10-20T18:11:45.627Z,14.68
2022-10-20T18:14:13.943Z,14.55
2022-10-20T18:16:42.588Z,15.32
2022-10-20T18:19:18.422Z,13.80
2022-10-20T18:21:48.067Z,14.63
2022-10-20T18:24:20.028Z,13.85
2022-10-20T18:26:48.205Z,13.57
2022-10-20T18:29:17.540Z,14.75
2022-10-20T18:31:46.791Z,14.07
2022-10-20T18:34:17.202Z,15.25
2022-10-20T18:36:46.333Z,13.85
2022-10-20T18:39:17.106Z,13.88
2022-10-20T18:41:46.344Z,13.50
2022-10-20T18:44:16.797Z,14.60
2022-10-20T18:46:46.618Z,13.90
2022-10-20T18:49:16.622Z,15.02
2022-10-20T18:51:46.744Z,14.98
2022-10-20T18:54:16.634Z,15.13
2022-10-20T18:56:45.022Z,14.80
2022-10-20T18:59:16.530Z,15.00
2022-10-20T19:01:45.261Z,15.18
2022-10-20T19:04:13.879Z,15.50
2022-10-20T19:06:43.579Z,17.15
2022-10-20T19:09:14.622Z,15.23
2022-10-20T19:11:45.291Z,15.00
2022-10-20T19:14:14.305Z,16.40
2022-10-20T19:16:44.958Z,16.55
2022-10-20T19:19:13.507Z,15.77
2022-10-20T19:21:41.715Z,17.30
2022-10-20T19:24:12.407Z,16.45
2022-10-20T19:26:57.071Z,16.60
2022-10-20T19:29:31.553Z,17.08
2022-10-20T19:32:04.293Z,16.52
2022-10-20T19:34:36.298Z,16.55
2022-10-20T19:37:05.660Z,16.25
2022-10-20T19:39:36.997Z,16.83
2022-10-20T19:42:07.809Z,15.65
2022-10-20T19:44:37.141Z,17.58
2022-10-20T19:47:05.622Z,17.45
2022-10-20T19:49:34.418Z,16.85
2022-10-20T19:52:02.769Z,16.98
2022-10-20T19:54:30.840Z,17.42
2022-10-20T19:56:59.186Z,17.45
2022-10-20T19:59:28.993Z,18.00
2022-10-20T20:01:57.429Z,17.38
2022-10-20T20:04:26.382Z,17.08
2022-10-20T20:06:58.367Z,16.42
2022-10-20T20:09:30.088Z,17.33
2022-10-20T20:11:58.019Z,16.92
2022-10-20T20:14:25.880Z,17.58
2022-10-20T20:16:55.224Z,16.08
2022-10-20T20:19:23.353Z,15.98
2022-10-20T20:21:51.307Z,16.25
2022-10-20T20:24:19.266Z,17.30
2022-10-20T20:26:47.437Z,16.63
2022-10-20T20:29:15.544Z,15.95
2022-10-20T20:31:43.593Z,15.98
2022-10-20T20:34:13.185Z,16.02
2022-10-20T20:36:41.234Z,16.83
2022-10-20T20:39:10.251Z,16.02
2022-10-20T20:41:38.600Z,15.43
2022-10-20T20:44:08.777Z,14.27
2022-10-20T20:46:37.197Z,14.35
2022-10-20T20:49:07.691Z,15.75
2022-10-20T20:51:37.010Z,14.63
2022-10-20T20:54:05.388Z,15.05
2022-10-20T20:56:33.784Z,16.23
2022-10-20T20:59:01.982Z,14.50
2022-10-20T21:01:32.484Z,14.60
2022-10-20T21:04:02.991Z,14.45
2022-10-20T21:07:00.321Z,15.48
2022-10-20T21:09:24.816Z,14.25
2022-10-20T21:11:55.516Z,15.23
2022-10-20T21:14:23.887Z,14.77
2022-10-20T21:16:52.248Z,15.15
2022-10-20T21:19:20.195Z,14.30
2022-10-20T21:21:51.240Z,14.70
2022-10-20T21:24:23.764Z,15.52
2022-10-20T21:26:53.518Z,14.30
2022-10-20T21:29:21.597Z,14.55
2022-10-20T21:31:49.646Z,15.15
2022-10-20T21:34:17.625Z,14.18
2022-10-20T21:36:46.967Z,14.65
2022-10-20T21:39:16.795Z,14.23
2022-10-20T21:41:46.618Z,14.50
2022-10-20T21:44:17.749Z,13.75
2022-10-20T21:46:49.989Z,14.90
2022-10-20T21:49:20.060Z,15.37
2022-10-20T21:51:50.083Z,14.00
2022-10-20T21:56:49.081Z,13.98
2022-10-20T21:59:20.823Z,14.38
2022-10-20T22:01:49.713Z,13.90
2022-10-20T22:04:19.809Z,14.40
2022-10-20T22:06:48.918Z,15.05
2022-10-20T22:09:17.570Z,14.82
2022-10-20T22:11:54.985Z,17.73
2022-10-20T22:14:24.733Z,16.40
2022-10-20T22:16:55.377Z,16.00
2022-10-20T22:19:25.131Z,14.68
2022-10-20T22:21:55.102Z,14.35
2022-10-20T22:24:24.274Z,15.75
2022-10-20T22:26:55.583Z,14.07
2022-10-20T22:29:24.931Z,14.32
2022-10-20T22:31:54.361Z,13.25
2022-10-20T22:34:22.814Z,13.43
2022-10-20T22:36:51.091Z,13.50
2022-10-20T22:39:19.433Z,13.65
2022-10-20T22:41:47.381Z,13.55
2022-10-20T22:44:16.946Z,13.43
2022-10-20T22:46:46.281Z,14.27
2022-10-20T22:49:14.893Z,14.48
2022-10-20T22:51:42.815Z,15.30
2022-10-20T22:54:10.755Z,14.10
2022-10-20T22:56:38.943Z,14.18
2022-10-20T22:59:07.252Z,14.55
2022-10-20T23:01:35.346Z,13.45
2022-10-20T23:04:05.034Z,14.63
2022-10-20T23:06:33.812Z,14.57
2022-10-20T23:09:02.045Z,13.65
2022-10-20T23:11:30.519Z,13.73
2022-10-20T23:13:58.457Z,14.45
2022-10-20T23:16:26.755Z,13.20
2022-10-20T23:18:54.705Z,13.63
2022-10-20T23:21:24.092Z,13.93
2022-10-20T23:23:52.428Z,15.18
2022-10-20T23:26:20.576Z,13.95
2022-10-20T23:28:48.693Z,14.35
2022-10-20T23:31:19.948Z,14.10
2022-10-20T23:33:50.465Z,13.30
2022-10-20T23:36:18.989Z,12.25
2022-10-20T23:38:48.761Z,13.27
2022-10-20T23:41:16.976Z,12.90
2022-10-20T23:43:46.102Z,13.02
2022-10-20T23:46:15.420Z,13.25
2022-10-20T23:48:43.636Z,12.38
2022-10-20T23:51:11.615Z,13.35
2022-10-20T23:53:39.559Z,13.63
2022-10-20T23:56:09.840Z,13.23
2022-10-20T23:58:38.058Z,13.30
